sensor_id;sensor_type;location;lat;lon;timestamp;pressure;altitude;pressure_sealevel;temperature;humidity
36386;BME280;24125;47.482;8.770;2023-03-23T00:00:51;95834.31;;;13.16;72.72
36386;BME280;24125;47.482;8.770;2023-03-23T00:03:24;95837.38;;;13.14;72.35
36386;BME280;24125;47.482;8.770;2023-03-23T00:05:58;95838.13;;;13.15;72.54
36386;BME280;24125;47.482;8.770;2023-03-23T00:08:35;95835.81;;;13.13;73.02
36386;BME280;24125;47.482;8.770;2023-03-23T00:11:08;95831.56;;;13.12;72.93
36386;BME280;24125;47.482;8.770;2023-03-23T00:13:40;95827.31;;;13.11;73.10
36386;BME280;24125;47.482;8.770;2023-03-23T00:16:13;95834.91;;;13.09;72.57
36386;BME280;24125;47.482;8.770;2023-03-23T00:18:48;95836.38;;;13.07;72.87
36386;BME280;24125;47.482;8.770;2023-03-23T00:21:22;95835.97;;;13.05;72.26
36386;BME280;24125;47.482;8.770;2023-03-23T00:23:55;95836.31;;;13.03;72.60
36386;BME280;24125;47.482;8.770;2023-03-23T00:26:27;95836.22;;;13.00;72.09
36386;BME280;24125;47.482;8.770;2023-03-23T00:29:00;95830.88;;;13.00;72.86
36386;BME280;24125;47.482;8.770;2023-03-23T00:31:33;95837.34;;;12.99;72.39
36386;BME280;24125;47.482;8.770;2023-03-23T00:34:05;95828.91;;;12.97;72.74
36386;BME280;24125;47.482;8.770;2023-03-23T00:36:37;95830.81;;;12.96;72.70
36386;BME280;24125;47.482;8.770;2023-03-23T00:39:13;95831.94;;;12.95;73.17
36386;BME280;24125;47.482;8.770;2023-03-23T00:41:46;95833.84;;;12.95;72.69
36386;BME280;24125;47.482;8.770;2023-03-23T00:44:18;95845.34;;;12.95;72.67
36386;BME280;24125;47.482;8.770;2023-03-23T00:46:55;95831.16;;;12.95;72.76
36386;BME280;24125;47.482;8.770;2023-03-23T00:49:26;95830.38;;;12.94;72.66
36386;BME280;24125;47.482;8.770;2023-03-23T00:51:58;95832.28;;;12.94;72.83
36386;BME280;24125;47.482;8.770;2023-03-23T00:54:30;95833.06;;;12.94;72.89
36386;BME280;24125;47.482;8.770;2023-03-23T00:57:02;95821.91;;;12.92;73.04
36386;BME280;24125;47.482;8.770;2023-03-23T00:59:33;95816.97;;;12.94;73.32
36386;BME280;24125;47.482;8.770;2023-03-23T01:02:06;95823.47;;;12.93;73.57
36386;BME280;24125;47.482;8.770;2023-03-23T01:04:38;95819.22;;;12.92;73.49
36386;BME280;24125;47.482;8.770;2023-03-23T01:07:10;95811.97;;;12.93;73.26
36386;BME280;24125;47.482;8.770;2023-03-23T01:09:42;95813.53;;;12.94;73.32
36386;BME280;24125;47.482;8.770;2023-03-23T01:12:15;95812.75;;;12.93;73.61
36386;BME280;24125;47.482;8.770;2023-03-23T01:14:46;95798.13;;;12.91;73.43
36386;BME280;24125;47.482;8.770;2023-03-23T01:17:20;95805.38;;;12.90;73.32
36386;BME280;24125;47.482;8.770;2023-03-23T01:19:52;95795.44;;;12.91;73.13
36386;BME280;24125;47.482;8.770;2023-03-23T01:22:23;95801.94;;;12.90;73.99
36386;BME280;24125;47.482;8.770;2023-03-23T01:24:55;95796.94;;;12.88;73.80
36386;BME280;24125;47.482;8.770;2023-03-23T01:27:27;95795.38;;;12.87;73.60
36386;BME280;24125;47.482;8.770;2023-03-23T01:29:58;95788.91;;;12.88;73.70
36386;BME280;24125;47.482;8.770;2023-03-23T01:32:32;95779.31;;;12.87;73.73
36386;BME280;24125;47.482;8.770;2023-03-23T01:35:04;95781.63;;;12.89;73.64
36386;BME280;24125;47.482;8.770;2023-03-23T01:37:36;95785.84;;;12.90;73.79
36386;BME280;24125;47.482;8.770;2023-03-23T01:40:08;95790.09;;;12.91;73.64
36386;BME280;24125;47.482;8.770;2023-03-23T01:42:40;95785.50;;;12.91;74.06
36386;BME280;24125;47.482;8.770;2023-03-23T01:48:01;95781.03;;;12.95;73.51
36386;BME280;24125;47.482;8.770;2023-03-23T01:50:36;95778.78;;;12.97;73.82
36386;BME280;24125;47.482;8.770;2023-03-23T01:53:09;95783.75;;;12.99;74.36
36386;BME280;24125;47.482;8.770;2023-03-23T01:55:42;95789.13;;;12.99;73.61
36386;BME280;24125;47.482;8.770;2023-03-23T01:58:18;95794.13;;;13.00;73.77
36386;BME280;24125;47.482;8.770;2023-03-23T02:00:52;95799.94;;;13.02;74.07
36386;BME280;24125;47.482;8.770;2023-03-23T02:03:27;95799.59;;;13.04;74.17
36386;BME280;24125;47.482;8.770;2023-03-23T02:05:59;95797.34;;;13.06;73.67
36386;BME280;24125;47.482;8.770;2023-03-23T02:08:30;95799.66;;;13.07;73.81
36386;BME280;24125;47.482;8.770;2023-03-23T02:11:08;95809.69;;;13.10;73.73
36386;BME280;24125;47.482;8.770;2023-03-23T02:13:40;95810.88;;;13.13;73.80
36386;BME280;24125;47.482;8.770;2023-03-23T02:16:14;95811.69;;;13.13;74.16
36386;BME280;24125;47.482;8.770;2023-03-23T02:18:55;95820.94;;;13.16;73.88
36386;BME280;24125;47.482;8.770;2023-03-23T02:27:05;95812.28;;;13.23;74.55
36386;BME280;24125;47.482;8.770;2023-03-23T02:29:51;95829.56;;;13.25;74.25
36386;BME280;24125;47.482;8.770;2023-03-23T02:32:32;95831.88;;;13.27;74.30
36386;BME280;24125;47.482;8.770;2023-03-23T02:35:12;95837.69;;;13.29;74.31
36386;BME280;24125;47.482;8.770;2023-03-23T02:37:49;95830.84;;;13.31;73.99
36386;BME280;24125;47.482;8.770;2023-03-23T02:40:24;95833.94;;;13.33;74.26
36386;BME280;24125;47.482;8.770;2023-03-23T02:42:57;95830.91;;;13.35;74.30
36386;BME280;24125;47.482;8.770;2023-03-23T02:45:29;95817.16;;;13.36;74.47
36386;BME280;24125;47.482;8.770;2023-03-23T02:48:02;95808.78;;;13.38;74.89
36386;BME280;24125;47.482;8.770;2023-03-23T02:50:36;95799.59;;;13.39;74.48
36386;BME280;24125;47.482;8.770;2023-03-23T02:53:10;95790.06;;;13.41;75.50
36386;BME280;24125;47.482;8.770;2023-03-23T02:55:42;95782.78;;;13.42;75.39
36386;BME280;24125;47.482;8.770;2023-03-23T02:58:15;95775.19;;;13.44;75.63
36386;BME280;24125;47.482;8.770;2023-03-23T03:00:48;95774.47;;;13.47;75.20
36386;BME280;24125;47.482;8.770;2023-03-23T03:03:20;95772.22;;;13.49;75.07
36386;BME280;24125;47.482;8.770;2023-03-23T03:05:56;95776.88;;;13.52;75.42
36386;BME280;24125;47.482;8.770;2023-03-23T03:08:32;95779.97;;;13.54;75.79
36386;BME280;24125;47.482;8.770;2023-03-23T03:11:09;95774.69;;;13.57;75.21
36386;BME280;24125;47.482;8.770;2023-03-23T03:13:45;95765.94;;;13.60;75.70
36386;BME280;24125;47.482;8.770;2023-03-23T03:16:22;95751.81;;;13.64;75.85
36386;BME280;24125;47.482;8.770;2023-03-23T03:18:56;95751.88;;;13.67;75.82
36386;BME280;24125;47.482;8.770;2023-03-23T03:21:32;95748.13;;;13.72;75.87
36386;BME280;24125;47.482;8.770;2023-03-23T03:24:06;95741.28;;;13.74;75.81
36386;BME280;24125;47.482;8.770;2023-03-23T03:26:43;95746.72;;;13.78;75.89
36386;BME280;24125;47.482;8.770;2023-03-23T03:29:18;95748.69;;;13.81;75.92
36386;BME280;24125;47.482;8.770;2023-03-23T03:31:51;95750.28;;;13.85;75.76
36386;BME280;24125;47.482;8.770;2023-03-23T03:34:25;95753.84;;;13.89;75.94
36386;BME280;24125;47.482;8.770;2023-03-23T03:36:59;95753.88;;;13.93;75.86
36386;BME280;24125;47.482;8.770;2023-03-23T03:39:31;95749.78;;;13.99;75.85
36386;BME280;24125;47.482;8.770;2023-03-23T03:42:05;95747.16;;;14.03;76.40
36386;BME280;24125;47.482;8.770;2023-03-23T03:44:37;95737.69;;;14.09;76.75
36386;BME280;24125;47.482;8.770;2023-03-23T03:47:08;95724.31;;;14.12;75.85
36386;BME280;24125;47.482;8.770;2023-03-23T03:49:40;95736.28;;;14.18;76.20
36386;BME280;24125;47.482;8.770;2023-03-23T03:52:13;95731.00;;;14.22;76.54
36386;BME280;24125;47.482;8.770;2023-03-23T03:54:45;95722.66;;;14.27;75.95
36386;BME280;24125;47.482;8.770;2023-03-23T03:57:17;95720.78;;;14.31;75.72
36386;BME280;24125;47.482;8.770;2023-03-23T03:59:49;95721.63;;;14.35;75.93
36386;BME280;24125;47.482;8.770;2023-03-23T04:02:21;95729.41;;;14.40;75.92
36386;BME280;24125;47.482;8.770;2023-03-23T04:04:53;95729.47;;;14.44;76.17
36386;BME280;24125;47.482;8.770;2023-03-23T04:07:26;95735.31;;;14.49;75.89
36386;BME280;24125;47.482;8.770;2023-03-23T04:09:59;95715.78;;;14.52;76.09
36386;BME280;24125;47.482;8.770;2023-03-23T04:12:31;95722.31;;;14.55;76.39
36386;BME280;24125;47.482;8.770;2023-03-23T04:15:03;95724.72;;;14.60;76.40
36386;BME280;24125;47.482;8.770;2023-03-23T04:17:35;95725.19;;;14.65;76.63
36386;BME280;24125;47.482;8.770;2023-03-23T04:20:08;95722.56;;;14.69;76.82
36386;BME280;24125;47.482;8.770;2023-03-23T04:22:46;95727.25;;;14.76;76.72
36386;BME280;24125;47.482;8.770;2023-03-23T04:25:19;95717.72;;;14.82;76.32
36386;BME280;24125;47.482;8.770;2023-03-23T04:27:52;95725.84;;;14.85;76.02
36386;BME280;24125;47.482;8.770;2023-03-23T04:30:24;95721.72;;;14.91;75.91
36386;BME280;24125;47.482;8.770;2023-03-23T04:32:57;95707.56;;;14.94;76.05
36386;BME280;24125;47.482;8.770;2023-03-23T04:35:31;95716.00;;;14.96;75.73
36386;BME280;24125;47.482;8.770;2023-03-23T04:38:04;95704.53;;;14.99;75.67
36386;BME280;24125;47.482;8.770;2023-03-23T04:40:36;95713.00;;;15.01;75.38
36386;BME280;24125;47.482;8.770;2023-03-23T04:43:08;95707.28;;;15.03;75.46
36386;BME280;24125;47.482;8.770;2023-03-23T04:45:42;95709.19;;;15.02;75.00
36386;BME280;24125;47.482;8.770;2023-03-23T04:48:16;95711.53;;;15.04;74.79
36386;BME280;24125;47.482;8.770;2023-03-23T04:50:49;95707.28;;;15.03;74.71
36386;BME280;24125;47.482;8.770;2023-03-23T04:53:23;95716.84;;;15.00;74.37
36386;BME280;24125;47.482;8.770;2023-03-23T04:55:55;95707.59;;;14.98;74.44
36386;BME280;24125;47.482;8.770;2023-03-23T04:58:26;95707.56;;;14.94;74.14
36386;BME280;24125;47.482;8.770;2023-03-23T05:00:58;95706.34;;;14.92;73.84
36386;BME280;24125;47.482;8.770;2023-03-23T05:03:29;95715.56;;;14.91;73.94
36386;BME280;24125;47.482;8.770;2023-03-23T05:06:01;95714.75;;;14.87;73.94
36386;BME280;24125;47.482;8.770;2023-03-23T05:08:35;95719.69;;;14.85;74.18
36386;BME280;24125;47.482;8.770;2023-03-23T05:11:08;95713.91;;;14.83;74.28
36386;BME280;24125;47.482;8.770;2023-03-23T05:13:40;95713.91;;;14.83;74.47
36386;BME280;24125;47.482;8.770;2023-03-23T05:16:14;95720.41;;;14.82;74.65
36386;BME280;24125;47.482;8.770;2023-03-23T05:18:45;95735.41;;;14.83;74.66
36386;BME280;24125;47.482;8.770;2023-03-23T05:21:18;95728.91;;;14.84;74.69
36386;BME280;24125;47.482;8.770;2023-03-23T05:23:51;95725.06;;;14.85;74.86
36386;BME280;24125;47.482;8.770;2023-03-23T05:26:24;95717.44;;;14.87;74.68
36386;BME280;24125;47.482;8.770;2023-03-23T05:28:59;95713.59;;;14.88;75.01
36386;BME280;24125;47.482;8.770;2023-03-23T05:31:30;95717.81;;;14.89;75.10
36386;BME280;24125;47.482;8.770;2023-03-23T05:34:02;95728.22;;;14.90;74.65
36386;BME280;24125;47.482;8.770;2023-03-23T05:36:34;95734.44;;;14.94;74.63
36386;BME280;24125;47.482;8.770;2023-03-23T05:39:08;95737.50;;;14.96;74.80
36386;BME280;24125;47.482;8.770;2023-03-23T05:41:40;95738.69;;;14.99;75.29
36386;BME280;24125;47.482;8.770;2023-03-23T05:44:12;95739.13;;;15.01;75.26
36386;BME280;24125;47.482;8.770;2023-03-23T05:46:43;95741.09;;;15.04;75.82
36386;BME280;24125;47.482;8.770;2023-03-23T05:49:15;95744.94;;;15.06;75.34
36386;BME280;24125;47.482;8.770;2023-03-23T05:51:47;95758.44;;;15.10;75.13
36386;BME280;24125;47.482;8.770;2023-03-23T05:54:21;95767.31;;;15.14;75.21
36386;BME280;24125;47.482;8.770;2023-03-23T05:56:52;95758.91;;;15.16;75.27
36386;BME280;24125;47.482;8.770;2023-03-23T05:59:24;95767.44;;;15.21;75.31
36386;BME280;24125;47.482;8.770;2023-03-23T06:01:56;95757.50;;;15.25;75.23
36386;BME280;24125;47.482;8.770;2023-03-23T06:04:28;95762.56;;;15.30;75.68
36386;BME280;24125;47.482;8.770;2023-03-23T06:07:00;95761.81;;;15.33;75.40
36386;BME280;24125;47.482;8.770;2023-03-23T06:09:33;95758.81;;;15.38;76.45
36386;BME280;24125;47.482;8.770;2023-03-23T06:12:05;95761.19;;;15.43;75.91
36386;BME280;24125;47.482;8.770;2023-03-23T06:14:37;95765.88;;;15.50;75.89
36386;BME280;24125;47.482;8.770;2023-03-23T06:17:10;95764.44;;;15.56;76.42
36386;BME280;24125;47.482;8.770;2023-03-23T06:19:41;95763.38;;;15.64;76.58
36386;BME280;24125;47.482;8.770;2023-03-23T06:22:13;95755.38;;;15.71;76.80
36386;BME280;24125;47.482;8.770;2023-03-23T06:24:47;95757.78;;;15.80;75.72
36386;BME280;24125;47.482;8.770;2023-03-23T06:27:19;95762.88;;;15.89;77.53
36386;BME280;24125;47.482;8.770;2023-03-23T06:29:51;95765.28;;;15.97;76.93
36386;BME280;24125;47.482;8.770;2023-03-23T06:32:23;95768.09;;;16.08;76.97
36386;BME280;24125;47.482;8.770;2023-03-23T06:34:56;95772.78;;;16.18;78.33
36386;BME280;24125;47.482;8.770;2023-03-23T06:37:28;95767.84;;;16.27;77.47
36386;BME280;24125;47.482;8.770;2023-03-23T06:40:02;95774.91;;;16.39;77.64
36386;BME280;24125;47.482;8.770;2023-03-23T06:42:36;95775.00;;;16.49;77.83
36386;BME280;24125;47.482;8.770;2023-03-23T06:45:08;95780.13;;;16.62;77.67
36386;BME280;24125;47.482;8.770;2023-03-23T06:47:40;95779.47;;;16.75;77.91
36386;BME280;24125;47.482;8.770;2023-03-23T06:50:12;95773.75;;;16.87;78.08
36386;BME280;24125;47.482;8.770;2023-03-23T06:52:44;95773.47;;;17.00;78.30
36386;BME280;24125;47.482;8.770;2023-03-23T06:55:18;95768.16;;;17.14;78.67
36386;BME280;24125;47.482;8.770;2023-03-23T06:57:49;95765.53;;;17.28;79.26
36386;BME280;24125;47.482;8.770;2023-03-23T07:00:21;95759.44;;;17.42;78.82
36386;BME280;24125;47.482;8.770;2023-03-23T07:02:53;95768.75;;;17.55;78.35
36386;BME280;24125;47.482;8.770;2023-03-23T07:05:25;95778.06;;;17.68;77.73
36386;BME280;24125;47.482;8.770;2023-03-23T07:07:57;95775.06;;;17.80;77.75
36386;BME280;24125;47.482;8.770;2023-03-23T07:10:30;95778.94;;;17.93;77.38
36386;BME280;24125;47.482;8.770;2023-03-23T07:13:02;95775.13;;;18.05;76.87
36386;BME280;24125;47.482;8.770;2023-03-23T07:15:34;95787.88;;;18.15;77.66
36386;BME280;24125;47.482;8.770;2023-03-23T07:18:06;95786.72;;;18.23;77.68
36386;BME280;24125;47.482;8.770;2023-03-23T07:20:37;95790.19;;;18.34;77.70
36386;BME280;24125;47.482;8.770;2023-03-23T07:23:09;95789.44;;;18.44;76.66
36386;BME280;24125;47.482;8.770;2023-03-23T07:25:43;95792.94;;;18.56;77.82
36386;BME280;24125;47.482;8.770;2023-03-23T07:28:15;95785.22;;;18.68;77.97
36386;BME280;24125;47.482;8.770;2023-03-23T07:30:47;95791.44;;;18.83;78.59
36386;BME280;24125;47.482;8.770;2023-03-23T07:33:18;95796.44;;;18.99;78.65
36386;BME280;24125;47.482;8.770;2023-03-23T07:35:50;95793.69;;;19.13;78.52
36386;BME280;24125;47.482;8.770;2023-03-23T07:38:22;95794.47;;;19.28;78.06
36386;BME280;24125;47.482;8.770;2023-03-23T07:40:56;95796.75;;;19.43;77.96
36386;BME280;24125;47.482;8.770;2023-03-23T07:43:28;95806.00;;;19.56;76.63
36386;BME280;24125;47.482;8.770;2023-03-23T07:46:00;95809.06;;;19.69;76.90
36386;BME280;24125;47.482;8.770;2023-03-23T07:48:32;95813.25;;;19.81;76.97
36386;BME280;24125;47.482;8.770;2023-03-23T07:51:04;95805.47;;;19.93;76.82
36386;BME280;24125;47.482;8.770;2023-03-23T07:53:35;95816.25;;;20.08;77.26
36386;BME280;24125;47.482;8.770;2023-03-23T07:56:09;95816.56;;;20.20;76.60
36386;BME280;24125;47.482;8.770;2023-03-23T07:58:40;95814.59;;;20.31;76.97
36386;BME280;24125;47.482;8.770;2023-03-23T08:01:12;95813.75;;;20.42;78.31
36386;BME280;24125;47.482;8.770;2023-03-23T08:03:44;95810.59;;;20.50;76.23
36386;BME280;24125;47.482;8.770;2023-03-23T08:06:17;95817.16;;;20.56;76.10
36386;BME280;24125;47.482;8.770;2023-03-23T08:08:49;95812.06;;;20.62;75.75
36386;BME280;24125;47.482;8.770;2023-03-23T08:11:22;95808.56;;;20.65;76.47
36386;BME280;24125;47.482;8.770;2023-03-23T08:13:54;95811.63;;;20.70;77.74
36386;BME280;24125;47.482;8.770;2023-03-23T08:16:26;95804.25;;;20.71;76.02
36386;BME280;24125;47.482;8.770;2023-03-23T08:18:58;95808.13;;;20.74;76.31
36386;BME280;24125;47.482;8.770;2023-03-23T08:21:30;95812.38;;;20.75;75.14
36386;BME280;24125;47.482;8.770;2023-03-23T08:24:03;95803.81;;;20.76;76.12
36386;BME280;24125;47.482;8.770;2023-03-23T08:26:36;95817.00;;;20.78;75.94
36386;BME280;24125;47.482;8.770;2023-03-23T08:29:08;95818.53;;;20.79;75.01
36386;BME280;24125;47.482;8.770;2023-03-23T08:31:40;95816.59;;;20.79;75.28
36386;BME280;24125;47.482;8.770;2023-03-23T08:34:11;95812.31;;;20.82;76.02
36386;BME280;24125;47.482;8.770;2023-03-23T08:36:43;95818.91;;;20.81;75.93
36386;BME280;24125;47.482;8.770;2023-03-23T08:39:16;95809.22;;;20.83;76.10
36386;BME280;24125;47.482;8.770;2023-03-23T08:41:50;95821.63;;;20.84;75.78
36386;BME280;24125;47.482;8.770;2023-03-23T08:44:22;95819.63;;;20.88;75.66
36386;BME280;24125;47.482;8.770;2023-03-23T08:46:54;95819.19;;;20.93;75.82
36386;BME280;24125;47.482;8.770;2023-03-23T08:49:27;95824.16;;;21.02;75.30
36386;BME280;24125;47.482;8.770;2023-03-23T08:51:59;95818.69;;;21.09;77.48
36386;BME280;24125;47.482;8.770;2023-03-23T08:54:31;95822.50;;;21.19;76.25
36386;BME280;24125;47.482;8.770;2023-03-23T08:57:04;95835.97;;;21.29;77.53
36386;BME280;24125;47.482;8.770;2023-03-23T08:59:36;95831.22;;;21.37;76.05
36386;BME280;24125;47.482;8.770;2023-03-23T09:02:08;95843.94;;;21.47;76.98
36386;BME280;24125;47.482;8.770;2023-03-23T09:04:41;95842.66;;;21.59;76.37
36386;BME280;24125;47.482;8.770;2023-03-23T09:07:13;95844.13;;;21.67;74.44
36386;BME280;24125;47.482;8.770;2023-03-23T09:09:45;95846.72;;;21.77;75.88
36386;BME280;24125;47.482;8.770;2023-03-23T09:12:18;95850.50;;;21.87;75.30
36386;BME280;24125;47.482;8.770;2023-03-23T09:14:50;95856.22;;;21.96;76.65
36386;BME280;24125;47.482;8.770;2023-03-23T09:17:21;95853.00;;;22.08;77.16
36386;BME280;24125;47.482;8.770;2023-03-23T09:19:53;95856.38;;;22.16;76.45
36386;BME280;24125;47.482;8.770;2023-03-23T09:22:25;95860.53;;;22.28;76.54
36386;BME280;24125;47.482;8.770;2023-03-23T09:24:58;95856.94;;;22.34;74.96
36386;BME280;24125;47.482;8.770;2023-03-23T09:27:31;95858.38;;;22.42;76.61
36386;BME280;24125;47.482;8.770;2023-03-23T09:30:03;95856.31;;;22.50;75.89
36386;BME280;24125;47.482;8.770;2023-03-23T09:32:36;95851.63;;;22.54;75.86
36386;BME280;24125;47.482;8.770;2023-03-23T09:35:08;95854.63;;;22.59;75.54
36386;BME280;24125;47.482;8.770;2023-03-23T09:37:42;95852.25;;;22.65;74.04
36386;BME280;24125;47.482;8.770;2023-03-23T09:40:15;95852.13;;;22.72;74.60
36386;BME280;24125;47.482;8.770;2023-03-23T09:45:39;95855.53;;;22.80;74.99
36386;BME280;24125;47.482;8.770;2023-03-23T09:51:09;95867.44;;;22.89;75.52
36386;BME280;24125;47.482;8.770;2023-03-23T09:53:44;95869.34;;;22.92;73.99
36386;BME280;24125;47.482;8.770;2023-03-23T09:56:19;95865.78;;;22.95;74.92
36386;BME280;24125;47.482;8.770;2023-03-23T09:58:51;95877.75;;;23.02;74.54
36386;BME280;24125;47.482;8.770;2023-03-23T10:01:27;95875.75;;;23.06;74.53
36386;BME280;24125;47.482;8.770;2023-03-23T10:04:03;95876.41;;;23.13;74.75
36386;BME280;24125;47.482;8.770;2023-03-23T10:06:36;95883.28;;;23.21;74.10
36386;BME280;24125;47.482;8.770;2023-03-23T10:09:09;95888.25;;;23.26;75.26
36386;BME280;24125;47.482;8.770;2023-03-23T10:11:48;95895.53;;;23.33;75.32
36386;BME280;24125;47.482;8.770;2023-03-23T10:14:25;95894.69;;;23.36;74.55
36386;BME280;24125;47.482;8.770;2023-03-23T10:17:03;95900.88;;;23.40;74.49
36386;BME280;24125;47.482;8.770;2023-03-23T10:19:44;95907.44;;;23.43;71.21
36386;BME280;24125;47.482;8.770;2023-03-23T10:22:17;95908.22;;;23.43;71.93
36386;BME280;24125;47.482;8.770;2023-03-23T10:24:51;95905.84;;;23.45;70.36
36386;BME280;24125;47.482;8.770;2023-03-23T10:27:25;95902.69;;;23.47;75.63
36386;BME280;24125;47.482;8.770;2023-03-23T10:29:59;95905.84;;;23.45;70.43
36386;BME280;24125;47.482;8.770;2023-03-23T10:32:39;95902.41;;;23.41;61.72
36386;BME280;24125;47.482;8.770;2023-03-23T10:35:13;95904.81;;;23.36;61.59
36386;BME280;24125;47.482;8.770;2023-03-23T10:37:47;95896.41;;;23.26;63.80
36386;BME280;24125;47.482;8.770;2023-03-23T10:40:21;95888.47;;;23.12;65.18
36386;BME280;24125;47.482;8.770;2023-03-23T10:42:54;95886.75;;;22.99;64.10
36386;BME280;24125;47.482;8.770;2023-03-23T10:45:26;95896.28;;;22.83;65.31
36386;BME280;24125;47.482;8.770;2023-03-23T10:48:08;95887.13;;;22.70;67.25
36386;BME280;24125;47.482;8.770;2023-03-23T10:50:41;95896.22;;;22.60;68.36
36386;BME280;24125;47.482;8.770;2023-03-23T10:53:15;95898.63;;;22.54;69.16
36386;BME280;24125;47.482;8.770;2023-03-23T10:55:47;95894.78;;;22.52;69.95
36386;BME280;24125;47.482;8.770;2023-03-23T10:58:23;95886.63;;;22.52;71.43
36386;BME280;24125;47.482;8.770;2023-03-23T11:00:55;95885.41;;;22.56;71.10
36386;BME280;24125;47.482;8.770;2023-03-23T11:03:34;95878.72;;;22.61;71.71
36386;BME280;24125;47.482;8.770;2023-03-23T11:06:08;95870.50;;;22.65;73.13
36386;BME280;24125;47.482;8.770;2023-03-23T11:08:47;95882.88;;;22.69;73.02
36386;BME280;24125;47.482;8.770;2023-03-23T11:11:20;95866.06;;;22.78;74.51
36386;BME280;24125;47.482;8.770;2023-03-23T11:13:57;95879.16;;;22.86;75.04
36386;BME280;24125;47.482;8.770;2023-03-23T11:16:30;95878.22;;;22.97;75.46
36386;BME280;24125;47.482;8.770;2023-03-23T11:19:12;95871.84;;;23.07;74.74
36386;BME280;24125;47.482;8.770;2023-03-23T11:21:45;95877.88;;;23.18;74.67
36386;BME280;24125;47.482;8.770;2023-03-23T11:24:20;95882.38;;;23.28;74.29
36386;BME280;24125;47.482;8.770;2023-03-23T11:26:52;95893.50;;;23.37;75.30
36386;BME280;24125;47.482;8.770;2023-03-23T11:29:25;95893.34;;;23.48;74.52
36386;BME280;24125;47.482;8.770;2023-03-23T11:32:02;95881.94;;;23.56;75.13
36386;BME280;24125;47.482;8.770;2023-03-23T11:34:40;95878.66;;;23.65;75.16
36386;BME280;24125;47.482;8.770;2023-03-23T11:37:13;95876.56;;;23.73;73.95
36386;BME280;24125;47.482;8.770;2023-03-23T11:39:48;95882.66;;;23.80;74.87
36386;BME280;24125;47.482;8.770;2023-03-23T11:42:21;95870.44;;;23.88;74.96
36386;BME280;24125;47.482;8.770;2023-03-23T11:45:05;95872.28;;;23.95;74.49
36386;BME280;24125;47.482;8.770;2023-03-23T11:47:39;95872.50;;;24.04;74.19
36386;BME280;24125;47.482;8.770;2023-03-23T11:50:14;95862.63;;;24.10;74.46
36386;BME280;24125;47.482;8.770;2023-03-23T11:52:47;95863.25;;;24.18;74.66
36386;BME280;24125;47.482;8.770;2023-03-23T11:55:23;95873.25;;;24.24;74.62
36386;BME280;24125;47.482;8.770;2023-03-23T11:57:56;95877.78;;;24.31;74.85
36386;BME280;24125;47.482;8.770;2023-03-23T12:00:31;95881.16;;;24.38;74.20
36386;BME280;24125;47.482;8.770;2023-03-23T12:03:08;95887.25;;;24.46;74.76
36386;BME280;24125;47.482;8.770;2023-03-23T12:05:47;95890.22;;;24.52;73.58
36386;BME280;24125;47.482;8.770;2023-03-23T12:11:09;95869.00;;;24.59;74.06
36386;BME280;24125;47.482;8.770;2023-03-23T12:13:45;95877.53;;;24.61;72.06
36386;BME280;24125;47.482;8.770;2023-03-23T12:16:28;95859.22;;;24.62;72.31
36386;BME280;24125;47.482;8.770;2023-03-23T12:19:03;95851.78;;;24.62;74.25
36386;BME280;24125;47.482;8.770;2023-03-23T12:21:42;95849.50;;;24.61;73.41
36386;BME280;24125;47.482;8.770;2023-03-23T12:24:18;95850.59;;;24.63;72.97
36386;BME280;24125;47.482;8.770;2023-03-23T12:26:55;95846.69;;;24.64;73.00
36386;BME280;24125;47.482;8.770;2023-03-23T12:29:35;95846.25;;;24.66;73.82
36386;BME280;24125;47.482;8.770;2023-03-23T12:32:22;95841.91;;;24.68;74.18
36386;BME280;24125;47.482;8.770;2023-03-23T12:35:00;95838.69;;;24.73;72.81
36386;BME280;24125;47.482;8.770;2023-03-23T12:37:38;95832.34;;;24.76;72.99
36386;BME280;24125;47.482;8.770;2023-03-23T12:40:23;95832.19;;;24.83;73.00
36386;BME280;24125;47.482;8.770;2023-03-23T12:42:59;95825.81;;;24.90;72.76
36386;BME280;24125;47.482;8.770;2023-03-23T12:48:32;95830.53;;;25.06;72.71
36386;BME280;24125;47.482;8.770;2023-03-23T12:51:10;95820.63;;;25.12;70.40
36386;BME280;24125;47.482;8.770;2023-03-23T12:53:49;95821.97;;;25.20;72.02
36386;BME280;24125;47.482;8.770;2023-03-23T12:56:24;95822.22;;;25.26;73.29
36386;BME280;24125;47.482;8.770;2023-03-23T12:58:59;95817.00;;;25.31;72.27
36386;BME280;24125;47.482;8.770;2023-03-23T13:01:33;95816.13;;;25.34;70.76
36386;BME280;24125;47.482;8.770;2023-03-23T13:04:08;95811.44;;;25.35;70.63
36386;BME280;24125;47.482;8.770;2023-03-23T13:06:42;95817.34;;;25.33;67.40
36386;BME280;24125;47.482;8.770;2023-03-23T13:09:16;95811.97;;;25.30;70.79
36386;BME280;24125;47.482;8.770;2023-03-23T13:11:48;95810.19;;;25.23;71.56
36386;BME280;24125;47.482;8.770;2023-03-23T13:14:24;95807.97;;;25.18;70.79
36386;BME280;24125;47.482;8.770;2023-03-23T13:16:59;95802.25;;;25.12;71.44
36386;BME280;24125;47.482;8.770;2023-03-23T13:19:36;95801.25;;;25.06;69.84
36386;BME280;24125;47.482;8.770;2023-03-23T13:22:11;95806.78;;;25.03;68.90
36386;BME280;24125;47.482;8.770;2023-03-23T13:24:49;95790.94;;;24.98;63.25
36386;BME280;24125;47.482;8.770;2023-03-23T13:27:23;95804.66;;;24.94;66.37
36386;BME280;24125;47.482;8.770;2023-03-23T13:29:55;95810.63;;;24.89;67.96
36386;BME280;24125;47.482;8.770;2023-03-23T13:32:32;95816.69;;;24.80;68.02
36386;BME280;24125;47.482;8.770;2023-03-23T13:35:11;95810.63;;;24.73;69.26
36386;BME280;24125;47.482;8.770;2023-03-23T13:37:44;95821.00;;;24.62;69.10
36386;BME280;24125;47.482;8.770;2023-03-23T13:40:23;95808.38;;;24.52;68.08
36386;BME280;24125;47.482;8.770;2023-03-23T13:42:56;95796.91;;;24.40;65.35
36386;BME280;24125;47.482;8.770;2023-03-23T13:45:36;95806.53;;;24.29;67.35
36386;BME280;24125;47.482;8.770;2023-03-23T13:48:19;95807.56;;;24.15;67.44
36386;BME280;24125;47.482;8.770;2023-03-23T13:50:53;95814.88;;;24.02;67.45
36386;BME280;24125;47.482;8.770;2023-03-23T13:53:26;95810.47;;;23.88;68.15